Edmonton Stony Plain Alta., Canada
Current Conditions -  °F | °C
As of 7:00 PM on Wednesday 28 Jan 2015 (Local Time) from CWSE Reporting Station
Moderate Fog Moderate Fog  
Wind Chill: -6°   Ceiling: 11800
Heat Index: -6°   Visibility: 4mi
Dew Point: -7°   Wind: 3mph
Humidity: 93%   Direction: 90°E
Pressure: 30.32"   Gusts: NA
Location:  53.53°N, 114.1°W
Report Text: CWSE 290200Z 09003KT 4SM FG OVC118 M06/M07 A3032 RMK SLP311 LAST OBS/NEXT 291100 UTC T10571067 WSI/SWOB
Loading
Personal Weather Stations






























Interactive Weather Map New forecast layout! Learn more

10-Day Weather Forecast

Advertisements
Track Severe Weather on mobile